sensor_id;sensor_type;location;lat;lon;timestamp;P1;durP1;ratioP1;P2;durP2;ratioP2
24443;SDS011;13346;50.984;5.822;2023-06-26T00:00:03;5.10;;;4.80;;
24443;SDS011;13346;50.984;5.822;2023-06-26T00:02:34;4.13;;;3.92;;
24443;SDS011;13346;50.984;5.822;2023-06-26T00:05:01;4.60;;;4.30;;
24443;SDS011;13346;50.984;5.822;2023-06-26T00:07:29;4.57;;;4.18;;
24443;SDS011;13346;50.984;5.822;2023-06-26T00:09:59;4.78;;;4.47;;
24443;SDS011;13346;50.984;5.822;2023-06-26T00:12:26;4.32;;;4.03;;
24443;SDS011;13346;50.984;5.822;2023-06-26T00:14:53;5.40;;;5.00;;
24443;SDS011;13346;50.984;5.822;2023-06-26T00:17:21;5.22;;;4.68;;
24443;SDS011;13346;50.984;5.822;2023-06-26T00:19:50;9.30;;;4.57;;
24443;SDS011;13346;50.984;5.822;2023-06-26T00:22:17;5.85;;;5.38;;
24443;SDS011;13346;50.984;5.822;2023-06-26T00:24:44;5.13;;;4.78;;
24443;SDS011;13346;50.984;5.822;2023-06-26T00:27:12;5.00;;;4.60;;
24443;SDS011;13346;50.984;5.822;2023-06-26T00:29:39;5.57;;;4.78;;
24443;SDS011;13346;50.984;5.822;2023-06-26T00:32:06;4.68;;;4.38;;
24443;SDS011;13346;50.984;5.822;2023-06-26T00:34:33;4.95;;;4.53;;
24443;SDS011;13346;50.984;5.822;2023-06-26T00:37:02;4.13;;;3.83;;
24443;SDS011;13346;50.984;5.822;2023-06-26T00:39:30;4.72;;;4.43;;
24443;SDS011;13346;50.984;5.822;2023-06-26T00:41:57;4.55;;;4.25;;
24443;SDS011;13346;50.984;5.822;2023-06-26T00:44:24;4.43;;;4.10;;
24443;SDS011;13346;50.984;5.822;2023-06-26T00:46:51;4.35;;;3.80;;
24443;SDS011;13346;50.984;5.822;2023-06-26T00:49:19;4.05;;;3.75;;
24443;SDS011;13346;50.984;5.822;2023-06-26T00:51:46;4.43;;;4.13;;
24443;SDS011;13346;50.984;5.822;2023-06-26T00:54:15;4.95;;;3.80;;
24443;SDS011;13346;50.984;5.822;2023-06-26T00:56:45;4.10;;;3.80;;
24443;SDS011;13346;50.984;5.822;2023-06-26T00:59:13;4.20;;;3.70;;
24443;SDS011;13346;50.984;5.822;2023-06-26T01:01:41;4.43;;;4.13;;
24443;SDS011;13346;50.984;5.822;2023-06-26T01:04:08;4.65;;;4.28;;
24443;SDS011;13346;50.984;5.822;2023-06-26T01:06:42;5.22;;;4.22;;
24443;SDS011;13346;50.984;5.822;2023-06-26T01:09:15;5.05;;;4.22;;
24443;SDS011;13346;50.984;5.822;2023-06-26T01:11:44;6.53;;;5.20;;
24443;SDS011;13346;50.984;5.822;2023-06-26T01:14:12;4.35;;;3.95;;
24443;SDS011;13346;50.984;5.822;2023-06-26T01:16:40;4.40;;;4.07;;
24443;SDS011;13346;50.984;5.822;2023-06-26T01:19:13;4.95;;;4.55;;
24443;SDS011;13346;50.984;5.822;2023-06-26T01:21:50;4.72;;;4.07;;
24443;SDS011;13346;50.984;5.822;2023-06-26T01:24:23;6.80;;;4.32;;
24443;SDS011;13346;50.984;5.822;2023-06-26T01:26:53;4.97;;;4.50;;
24443;SDS011;13346;50.984;5.822;2023-06-26T01:29:21;5.45;;;5.05;;
24443;SDS011;13346;50.984;5.822;2023-06-26T01:31:51;4.95;;;4.55;;
24443;SDS011;13346;50.984;5.822;2023-06-26T01:34:18;5.78;;;4.50;;
24443;SDS011;13346;50.984;5.822;2023-06-26T01:36:46;4.82;;;4.40;;
24443;SDS011;13346;50.984;5.822;2023-06-26T01:39:15;5.55;;;5.15;;
24443;SDS011;13346;50.984;5.822;2023-06-26T01:41:43;5.75;;;5.25;;
24443;SDS011;13346;50.984;5.822;2023-06-26T01:44:14;4.78;;;4.38;;
24443;SDS011;13346;50.984;5.822;2023-06-26T01:46:52;4.50;;;4.07;;
24443;SDS011;13346;50.984;5.822;2023-06-26T01:49:28;5.25;;;4.85;;
24443;SDS011;13346;50.984;5.822;2023-06-26T01:52:01;5.18;;;4.60;;
24443;SDS011;13346;50.984;5.822;2023-06-26T01:54:35;6.88;;;4.80;;
24443;SDS011;13346;50.984;5.822;2023-06-26T01:57:05;4.95;;;4.65;;
24443;SDS011;13346;50.984;5.822;2023-06-26T01:59:36;5.13;;;4.72;;
24443;SDS011;13346;50.984;5.822;2023-06-26T02:02:06;7.80;;;4.93;;
24443;SDS011;13346;50.984;5.822;2023-06-26T02:04:34;5.05;;;4.70;;
24443;SDS011;13346;50.984;5.822;2023-06-26T02:07:02;5.07;;;4.72;;
24443;SDS011;13346;50.984;5.822;2023-06-26T02:09:30;5.45;;;4.90;;
24443;SDS011;13346;50.984;5.822;2023-06-26T02:11:57;5.18;;;4.80;;
24443;SDS011;13346;50.984;5.822;2023-06-26T02:14:24;5.95;;;5.47;;
24443;SDS011;13346;50.984;5.822;2023-06-26T02:16:53;7.78;;;5.53;;
24443;SDS011;13346;50.984;5.822;2023-06-26T02:19:20;9.40;;;5.93;;
24443;SDS011;13346;50.984;5.822;2023-06-26T02:21:47;5.50;;;5.05;;
24443;SDS011;13346;50.984;5.822;2023-06-26T02:24:15;5.13;;;4.78;;
24443;SDS011;13346;50.984;5.822;2023-06-26T02:26:42;4.32;;;4.03;;
24443;SDS011;13346;50.984;5.822;2023-06-26T02:29:09;7.00;;;5.30;;
24443;SDS011;13346;50.984;5.822;2023-06-26T02:31:36;4.50;;;4.13;;
24443;SDS011;13346;50.984;5.822;2023-06-26T02:34:05;5.38;;;4.88;;
24443;SDS011;13346;50.984;5.822;2023-06-26T02:36:33;4.28;;;3.97;;
24443;SDS011;13346;50.984;5.822;2023-06-26T02:39:00;5.03;;;4.65;;
24443;SDS011;13346;50.984;5.822;2023-06-26T02:41:27;5.68;;;5.15;;
24443;SDS011;13346;50.984;5.822;2023-06-26T02:43:55;5.25;;;4.90;;
24443;SDS011;13346;50.984;5.822;2023-06-26T02:46:22;4.72;;;4.43;;
24443;SDS011;13346;50.984;5.822;2023-06-26T02:48:49;8.13;;;4.75;;
24443;SDS011;13346;50.984;5.822;2023-06-26T02:51:18;5.25;;;4.80;;
24443;SDS011;13346;50.984;5.822;2023-06-26T02:53:45;5.25;;;4.75;;
24443;SDS011;13346;50.984;5.822;2023-06-26T02:56:12;4.88;;;4.57;;
24443;SDS011;13346;50.984;5.822;2023-06-26T02:58:39;5.40;;;5.00;;
24443;SDS011;13346;50.984;5.822;2023-06-26T03:01:07;6.20;;;5.15;;
24443;SDS011;13346;50.984;5.822;2023-06-26T03:03:34;5.13;;;4.82;;
24443;SDS011;13346;50.984;5.822;2023-06-26T03:06:06;4.93;;;4.53;;
24443;SDS011;13346;50.984;5.822;2023-06-26T03:08:36;5.05;;;4.68;;
24443;SDS011;13346;50.984;5.822;2023-06-26T03:11:04;7.07;;;4.50;;
24443;SDS011;13346;50.984;5.822;2023-06-26T03:13:32;4.20;;;3.90;;
24443;SDS011;13346;50.984;5.822;2023-06-26T03:15:59;3.95;;;3.75;;
24443;SDS011;13346;50.984;5.822;2023-06-26T03:18:29;4.50;;;4.20;;
24443;SDS011;13346;50.984;5.822;2023-06-26T03:20:56;4.85;;;4.00;;
24443;SDS011;13346;50.984;5.822;2023-06-26T03:23:24;3.60;;;3.28;;
24443;SDS011;13346;50.984;5.822;2023-06-26T03:25:53;4.68;;;4.28;;
24443;SDS011;13346;50.984;5.822;2023-06-26T03:28:20;4.13;;;3.80;;
24443;SDS011;13346;50.984;5.822;2023-06-26T03:30:48;4.07;;;3.78;;
24443;SDS011;13346;50.984;5.822;2023-06-26T03:33:15;4.55;;;4.20;;
24443;SDS011;13346;50.984;5.822;2023-06-26T03:35:42;4.05;;;3.75;;
24443;SDS011;13346;50.984;5.822;2023-06-26T03:38:09;4.32;;;3.92;;
24443;SDS011;13346;50.984;5.822;2023-06-26T03:40:36;3.83;;;3.53;;
24443;SDS011;13346;50.984;5.822;2023-06-26T03:43:05;4.40;;;4.10;;
24443;SDS011;13346;50.984;5.822;2023-06-26T03:45:32;5.30;;;4.53;;
24443;SDS011;13346;50.984;5.822;2023-06-26T03:48:00;4.82;;;4.43;;
24443;SDS011;13346;50.984;5.822;2023-06-26T03:50:27;3.90;;;3.70;;
24443;SDS011;13346;50.984;5.822;2023-06-26T03:52:54;5.70;;;4.10;;
24443;SDS011;13346;50.984;5.822;2023-06-26T03:55:21;6.68;;;3.53;;
24443;SDS011;13346;50.984;5.822;2023-06-26T03:57:49;7.30;;;4.35;;
24443;SDS011;13346;50.984;5.822;2023-06-26T04:00:18;6.07;;;4.03;;
24443;SDS011;13346;50.984;5.822;2023-06-26T04:02:45;4.97;;;4.45;;
24443;SDS011;13346;50.984;5.822;2023-06-26T04:05:12;4.45;;;4.05;;
24443;SDS011;13346;50.984;5.822;2023-06-26T04:07:41;3.53;;;3.30;;
24443;SDS011;13346;50.984;5.822;2023-06-26T04:10:09;3.53;;;3.30;;
24443;SDS011;13346;50.984;5.822;2023-06-26T04:12:36;3.83;;;3.50;;
24443;SDS011;13346;50.984;5.822;2023-06-26T04:15:03;4.68;;;3.47;;
24443;SDS011;13346;50.984;5.822;2023-06-26T04:17:33;3.80;;;3.45;;
24443;SDS011;13346;50.984;5.822;2023-06-26T04:20:00;4.88;;;3.67;;
24443;SDS011;13346;50.984;5.822;2023-06-26T04:22:31;3.25;;;2.70;;
24443;SDS011;13346;50.984;5.822;2023-06-26T04:24:59;3.92;;;3.35;;
24443;SDS011;13346;50.984;5.822;2023-06-26T04:27:29;3.92;;;3.17;;
24443;SDS011;13346;50.984;5.822;2023-06-26T04:29:56;3.42;;;3.13;;
24443;SDS011;13346;50.984;5.822;2023-06-26T04:32:23;5.30;;;3.60;;
24443;SDS011;13346;50.984;5.822;2023-06-26T04:34:52;4.55;;;3.45;;
24443;SDS011;13346;50.984;5.822;2023-06-26T04:37:19;3.10;;;2.90;;
24443;SDS011;13346;50.984;5.822;2023-06-26T04:39:46;5.57;;;3.30;;
24443;SDS011;13346;50.984;5.822;2023-06-26T04:42:13;3.47;;;3.20;;
24443;SDS011;13346;50.984;5.822;2023-06-26T04:44:41;3.65;;;3.00;;
24443;SDS011;13346;50.984;5.822;2023-06-26T04:47:08;4.32;;;3.47;;
24443;SDS011;13346;50.984;5.822;2023-06-26T04:49:35;3.67;;;3.17;;
24443;SDS011;13346;50.984;5.822;2023-06-26T04:52:04;3.45;;;3.25;;
24443;SDS011;13346;50.984;5.822;2023-06-26T04:54:31;3.40;;;3.17;;
24443;SDS011;13346;50.984;5.822;2023-06-26T04:56:58;3.13;;;2.92;;
24443;SDS011;13346;50.984;5.822;2023-06-26T04:59:26;4.15;;;3.35;;
24443;SDS011;13346;50.984;5.822;2023-06-26T05:01:53;4.90;;;2.88;;
24443;SDS011;13346;50.984;5.822;2023-06-26T05:04:20;5.05;;;3.17;;
24443;SDS011;13346;50.984;5.822;2023-06-26T05:06:48;3.45;;;3.13;;
24443;SDS011;13346;50.984;5.822;2023-06-26T05:09:16;5.63;;;3.45;;
24443;SDS011;13346;50.984;5.822;2023-06-26T05:11:43;6.07;;;3.78;;
24443;SDS011;13346;50.984;5.822;2023-06-26T05:14:10;8.57;;;3.55;;
24443;SDS011;13346;50.984;5.822;2023-06-26T05:16:38;3.45;;;3.22;;
24443;SDS011;13346;50.984;5.822;2023-06-26T05:19:05;3.80;;;3.13;;
24443;SDS011;13346;50.984;5.822;2023-06-26T05:21:33;4.10;;;2.90;;
24443;SDS011;13346;50.984;5.822;2023-06-26T05:24:01;5.30;;;3.10;;
24443;SDS011;13346;50.984;5.822;2023-06-26T05:26:31;4.25;;;2.88;;
24443;SDS011;13346;50.984;5.822;2023-06-26T05:28:59;7.57;;;3.50;;
24443;SDS011;13346;50.984;5.822;2023-06-26T05:31:27;3.35;;;3.08;;
24443;SDS011;13346;50.984;5.822;2023-06-26T05:33:55;8.10;;;3.55;;
24443;SDS011;13346;50.984;5.822;2023-06-26T05:36:24;5.07;;;3.55;;
24443;SDS011;13346;50.984;5.822;2023-06-26T05:38:54;4.93;;;2.95;;
24443;SDS011;13346;50.984;5.822;2023-06-26T05:41:22;4.80;;;3.22;;
24443;SDS011;13346;50.984;5.822;2023-06-26T05:43:51;4.20;;;3.88;;
24443;SDS011;13346;50.984;5.822;2023-06-26T05:46:19;4.53;;;2.85;;
24443;SDS011;13346;50.984;5.822;2023-06-26T05:48:46;3.97;;;3.15;;
24443;SDS011;13346;50.984;5.822;2023-06-26T05:51:14;4.15;;;3.20;;
24443;SDS011;13346;50.984;5.822;2023-06-26T05:53:42;3.58;;;3.25;;
24443;SDS011;13346;50.984;5.822;2023-06-26T05:56:10;4.93;;;3.90;;
24443;SDS011;13346;50.984;5.822;2023-06-26T05:58:38;5.97;;;3.78;;
24443;SDS011;13346;50.984;5.822;2023-06-26T06:01:07;3.17;;;2.70;;
24443;SDS011;13346;50.984;5.822;2023-06-26T06:03:34;5.95;;;3.40;;
24443;SDS011;13346;50.984;5.822;2023-06-26T06:06:01;6.30;;;3.85;;
24443;SDS011;13346;50.984;5.822;2023-06-26T06:08:28;7.32;;;3.83;;
24443;SDS011;13346;50.984;5.822;2023-06-26T06:10:56;3.25;;;2.90;;
24443;SDS011;13346;50.984;5.822;2023-06-26T06:13:23;7.13;;;3.63;;
24443;SDS011;13346;50.984;5.822;2023-06-26T06:15:50;4.82;;;3.70;;
24443;SDS011;13346;50.984;5.822;2023-06-26T06:18:19;4.95;;;4.07;;
24443;SDS011;13346;50.984;5.822;2023-06-26T06:20:46;4.60;;;3.13;;
24443;SDS011;13346;50.984;5.822;2023-06-26T06:23:14;5.15;;;2.97;;
24443;SDS011;13346;50.984;5.822;2023-06-26T06:25:41;5.15;;;3.53;;
24443;SDS011;13346;50.984;5.822;2023-06-26T06:28:08;4.00;;;2.90;;
24443;SDS011;13346;50.984;5.822;2023-06-26T06:30:35;3.67;;;3.35;;
24443;SDS011;13346;50.984;5.822;2023-06-26T06:33:03;5.80;;;2.58;;
24443;SDS011;13346;50.984;5.822;2023-06-26T06:35:31;5.35;;;3.25;;
24443;SDS011;13346;50.984;5.822;2023-06-26T06:37:58;9.75;;;4.13;;
24443;SDS011;13346;50.984;5.822;2023-06-26T06:40:25;7.32;;;3.75;;
24443;SDS011;13346;50.984;5.822;2023-06-26T06:42:53;4.47;;;2.47;;
24443;SDS011;13346;50.984;5.822;2023-06-26T06:45:20;3.50;;;2.97;;
24443;SDS011;13346;50.984;5.822;2023-06-26T06:47:47;5.18;;;3.42;;
24443;SDS011;13346;50.984;5.822;2023-06-26T22:53:58;3.90;;;1.57;;
24443;SDS011;13346;50.984;5.822;2023-06-26T22:56:27;1.80;;;1.70;;
24443;SDS011;13346;50.984;5.822;2023-06-26T22:58:55;1.47;;;1.43;;
24443;SDS011;13346;50.984;5.822;2023-06-26T23:01:22;1.43;;;1.40;;
24443;SDS011;13346;50.984;5.822;2023-06-26T23:03:49;4.10;;;1.90;;
24443;SDS011;13346;50.984;5.822;2023-06-26T23:06:18;1.43;;;1.33;;
24443;SDS011;13346;50.984;5.822;2023-06-26T23:08:46;2.43;;;1.57;;
24443;SDS011;13346;50.984;5.822;2023-06-26T23:11:15;3.43;;;1.90;;
24443;SDS011;13346;50.984;5.822;2023-06-26T23:13:43;1.97;;;1.67;;
24443;SDS011;13346;50.984;5.822;2023-06-26T23:16:10;2.97;;;1.90;;
24443;SDS011;13346;50.984;5.822;2023-06-26T23:18:38;2.40;;;1.70;;
24443;SDS011;13346;50.984;5.822;2023-06-26T23:21:06;1.50;;;1.33;;
24443;SDS011;13346;50.984;5.822;2023-06-26T23:23:33;1.43;;;1.33;;
24443;SDS011;13346;50.984;5.822;2023-06-26T23:26:01;1.90;;;1.80;;
24443;SDS011;13346;50.984;5.822;2023-06-26T23:28:30;2.03;;;1.83;;
24443;SDS011;13346;50.984;5.822;2023-06-26T23:30:58;3.10;;;1.57;;
24443;SDS011;13346;50.984;5.822;2023-06-26T23:33:25;3.57;;;1.90;;
24443;SDS011;13346;50.984;5.822;2023-06-26T23:35:54;1.80;;;1.70;;
24443;SDS011;13346;50.984;5.822;2023-06-26T23:38:21;4.80;;;1.83;;
24443;SDS011;13346;50.984;5.822;2023-06-26T23:40:48;4.40;;;2.20;;
24443;SDS011;13346;50.984;5.822;2023-06-26T23:43:16;5.07;;;2.50;;
24443;SDS011;13346;50.984;5.822;2023-06-26T23:45:44;2.87;;;1.97;;
24443;SDS011;13346;50.984;5.822;2023-06-26T23:48:12;6.07;;;2.13;;
24443;SDS011;13346;50.984;5.822;2023-06-26T23:50:39;2.90;;;1.90;;
24443;SDS011;13346;50.984;5.822;2023-06-26T23:53:06;2.67;;;1.70;;
24443;SDS011;13346;50.984;5.822;2023-06-26T23:55:34;2.43;;;1.77;;
24443;SDS011;13346;50.984;5.822;2023-06-26T23:58:01;5.73;;;2.30;;
